KEAU/EAU METAR and TAF weather

Enter ICAO airport designator
Station Type Date Time Source
KEAU METAR 2024/07/24 12:56 UTC NOAA

KEAU 241256Z 06006KT 10SM OVC009 16/14 A3020 RMK AO2 SLP226 T01560139


Station Type Date Time Source
KEAU Decoded METAR 2024/07/24 12:56 UTC NOAA

EAU CLAIRE CHIPPEWA VALLEY, WI, United States (KEAU) 44-52N 091-29W
Jul 24, 2024 - 08:56 AM EDT / 2024.07.24 1256 UTC
Wind: from the ENE (060 degrees) at 7 MPH (6 KT):0
Visibility: 10 mile(s):0
Sky conditions: overcast
Temperature: 60.1 F (15.6 C)
Dew Point: 57.0 F (13.9 C)
Relative Humidity: 89%
Pressure (altimeter): 30.2 in. Hg (1022 hPa)
ob: KEAU 241256Z 06006KT 10SM OVC009 16/14 A3020 RMK AO2 SLP226 T01560139
cycle: 13

Station Type Date Time Source
KEAU TAF 2024/07/24 12:22 UTC NOAA